createdAt,value
2022-10-17T00:00:07.262Z,5.05
2022-10-17T00:02:34.464Z,5.20
2022-10-17T00:05:01.652Z,5.00
2022-10-17T00:07:29.294Z,5.13
2022-10-17T00:09:56.970Z,6.07
2022-10-17T00:12:24.136Z,5.28
2022-10-17T00:14:51.383Z,6.28
2022-10-17T00:17:18.782Z,4.22
2022-10-17T00:19:46.094Z,5.00
2022-10-17T00:22:13.267Z,4.70
2022-10-17T00:24:40.504Z,4.82
2022-10-17T00:27:07.715Z,3.97
2022-10-17T00:29:35.030Z,4.55
2022-10-17T00:32:02.225Z,3.58
2022-10-17T00:34:29.440Z,3.65
2022-10-17T00:36:57.115Z,3.58
2022-10-17T00:39:25.417Z,3.28
2022-10-17T00:41:52.593Z,3.85
2022-10-17T00:44:20.359Z,4.25
2022-10-17T00:46:47.545Z,3.53
2022-10-17T00:49:14.779Z,3.08
2022-10-17T00:51:42.014Z,3.05
2022-10-17T00:54:09.985Z,4.05
2022-10-17T00:56:37.291Z,4.28
2022-10-17T01:01:33.523Z,4.38
2022-10-17T01:04:00.877Z,3.50
2022-10-17T01:06:28.186Z,2.88
2022-10-17T01:08:55.593Z,3.60
2022-10-17T01:11:22.802Z,3.92
2022-10-17T01:13:50.498Z,3.47
2022-10-17T01:16:17.817Z,2.78
2022-10-17T01:18:45.054Z,2.40
2022-10-17T01:21:12.367Z,3.53
2022-10-17T01:23:39.547Z,2.95
2022-10-17T01:26:08.115Z,4.35
2022-10-17T01:28:35.460Z,2.97
2022-10-17T01:31:03.073Z,3.00
2022-10-17T01:33:30.839Z,2.95
2022-10-17T01:36:03.248Z,3.00
2022-10-17T01:38:33.519Z,3.30
2022-10-17T01:41:00.774Z,2.97
2022-10-17T01:43:28.157Z,2.90
2022-10-17T01:45:57.241Z,2.50
2022-10-17T01:48:24.478Z,3.42
2022-10-17T01:50:51.661Z,3.90
2022-10-17T01:53:18.876Z,3.42
2022-10-17T01:55:46.173Z,2.95
2022-10-17T01:58:13.546Z,3.50
2022-10-17T02:00:42.696Z,3.65
2022-10-17T02:03:10.149Z,4.30
2022-10-17T02:05:37.920Z,2.40
2022-10-17T02:08:05.304Z,2.83
2022-10-17T02:10:32.593Z,3.10
2022-10-17T02:13:02.117Z,2.60
2022-10-17T02:15:31.205Z,2.63
2022-10-17T02:17:58.499Z,3.25
2022-10-17T02:20:25.863Z,2.65
2022-10-17T02:22:53.950Z,2.50
2022-10-17T02:25:21.133Z,3.70
2022-10-17T02:27:53.493Z,3.03
2022-10-17T02:30:20.814Z,3.03
2022-10-17T02:32:50.271Z,2.45
2022-10-17T02:35:21.016Z,2.88
2022-10-17T02:37:48.377Z,3.35
2022-10-17T02:40:15.913Z,3.10
2022-10-17T02:42:43.118Z,2.70
2022-10-17T02:45:10.302Z,2.30
2022-10-17T02:47:37.673Z,2.88
2022-10-17T02:50:05.650Z,2.75
2022-10-17T02:52:33.134Z,2.67
2022-10-17T02:55:02.614Z,2.50
2022-10-17T02:57:30.082Z,2.72
2022-10-17T02:59:57.279Z,3.20
2022-10-17T03:02:24.633Z,2.10
2022-10-17T03:04:51.924Z,2.50
2022-10-17T03:07:19.185Z,2.63
2022-10-17T03:09:46.476Z,2.20
2022-10-17T03:12:13.758Z,2.60
2022-10-17T03:14:41.326Z,2.40
2022-10-17T03:17:08.784Z,2.20
2022-10-17T03:19:36.372Z,2.50
2022-10-17T03:22:03.713Z,2.60
2022-10-17T03:24:31.786Z,2.05
2022-10-17T03:26:59.075Z,2.63
2022-10-17T03:29:26.320Z,2.00
2022-10-17T03:31:54.402Z,2.15
2022-10-17T03:34:21.818Z,3.00
2022-10-17T03:36:49.138Z,2.28
2022-10-17T03:39:16.559Z,2.20
2022-10-17T03:41:43.945Z,2.60
2022-10-17T03:44:11.261Z,2.42
2022-10-17T03:46:38.603Z,2.75
2022-10-17T03:49:06.550Z,2.60
2022-10-17T03:51:34.981Z,2.10
2022-10-17T03:54:06.658Z,2.42
2022-10-17T03:56:33.937Z,2.60
2022-10-17T03:59:06.346Z,2.50
2022-10-17T04:01:36.177Z,2.53
2022-10-17T04:04:03.503Z,2.28
2022-10-17T04:06:33.994Z,2.70
2022-10-17T04:09:01.391Z,2.50
2022-10-17T04:11:37.001Z,3.25
2022-10-17T04:14:04.595Z,4.93
2022-10-17T04:16:32.292Z,3.35
2022-10-17T04:19:08.429Z,3.50
2022-10-17T04:21:40.679Z,2.53
2022-10-17T04:24:08.752Z,2.53
2022-10-17T04:26:55.030Z,3.63
2022-10-17T04:29:25.377Z,2.90
2022-10-17T04:31:56.394Z,2.72
2022-10-17T04:34:35.251Z,2.42
2022-10-17T04:37:02.508Z,2.40
2022-10-17T04:39:29.799Z,3.63
2022-10-17T04:41:58.561Z,2.72
2022-10-17T04:44:25.902Z,2.63
2022-10-17T04:46:53.356Z,2.78
2022-10-17T04:49:20.748Z,2.50
2022-10-17T04:51:52.254Z,3.65
2022-10-17T04:54:23.371Z,2.03
2022-10-17T04:56:57.752Z,2.25
2022-10-17T04:59:26.012Z,2.97
2022-10-17T05:02:04.231Z,3.28
2022-10-17T05:04:32.815Z,2.00
2022-10-17T05:07:01.169Z,3.28
2022-10-17T05:09:43.017Z,2.42
2022-10-17T05:12:11.002Z,2.38
2022-10-17T05:14:41.634Z,2.17
2022-10-17T05:17:08.887Z,2.05
2022-10-17T05:19:36.289Z,2.53
2022-10-17T05:22:04.588Z,2.47
2022-10-17T05:24:32.012Z,2.33
2022-10-17T05:26:59.306Z,2.42
2022-10-17T05:29:26.593Z,2.47
2022-10-17T05:34:29.953Z,2.30
2022-10-17T05:36:57.233Z,2.08
2022-10-17T05:39:24.946Z,2.53
2022-10-17T05:41:52.777Z,3.00
2022-10-17T05:44:20.289Z,2.15
2022-10-17T05:46:53.654Z,2.53
2022-10-17T05:49:32.662Z,2.65
2022-10-17T05:52:09.082Z,2.05
2022-10-17T05:54:47.086Z,2.00
2022-10-17T05:57:14.544Z,2.42
2022-10-17T05:59:41.870Z,2.90
2022-10-17T06:02:13.382Z,2.53
2022-10-17T06:04:45.665Z,3.03
2022-10-17T06:07:19.155Z,2.60
2022-10-17T06:09:48.022Z,2.75
2022-10-17T06:12:15.569Z,4.63
2022-10-17T06:14:43.884Z,3.22
2022-10-17T06:17:16.015Z,2.58
2022-10-17T06:19:44.976Z,2.85
2022-10-17T06:22:14.562Z,2.60
2022-10-17T06:24:42.486Z,2.10
2022-10-17T06:27:11.929Z,2.45
2022-10-17T06:29:41.261Z,2.28
2022-10-17T06:32:11.256Z,2.80
2022-10-17T06:34:42.673Z,2.30
2022-10-17T06:37:10.758Z,1.85
2022-10-17T06:39:40.137Z,2.63
2022-10-17T06:42:12.269Z,2.83
2022-10-17T06:44:46.840Z,1.95
2022-10-17T06:47:32.798Z,2.20
2022-10-17T06:50:05.640Z,2.05
2022-10-17T06:52:42.535Z,2.03
2022-10-17T06:55:43.238Z,1.50
2022-10-17T06:58:18.231Z,2.00
2022-10-17T07:01:11.680Z,1.60
2022-10-17T07:03:40.405Z,1.67
2022-10-17T07:06:07.797Z,1.55
2022-10-17T07:08:35.116Z,1.73
2022-10-17T07:11:03.721Z,1.10
2022-10-17T07:13:34.419Z,1.48
2022-10-17T07:16:04.167Z,1.40
2022-10-17T07:18:33.022Z,1.40
2022-10-17T07:21:00.467Z,1.20
2022-10-17T07:23:28.107Z,1.60
2022-10-17T07:25:55.400Z,1.17
2022-10-17T07:28:22.648Z,1.67
2022-10-17T07:30:53.735Z,1.73
2022-10-17T07:33:21.911Z,2.65
2022-10-17T07:35:50.106Z,1.25
2022-10-17T07:38:17.416Z,1.00
2022-10-17T07:40:44.907Z,1.38
2022-10-17T07:43:12.180Z,1.38
2022-10-17T07:45:39.586Z,1.20
2022-10-17T07:48:06.801Z,1.55
2022-10-17T07:50:34.146Z,1.75
2022-10-17T07:53:01.393Z,1.40
2022-10-17T07:55:28.613Z,1.27
2022-10-17T07:57:55.940Z,1.50
2022-10-17T08:00:23.145Z,1.90
2022-10-17T08:02:50.469Z,1.77
2022-10-17T08:05:17.659Z,1.30
2022-10-17T08:07:44.887Z,1.20
2022-10-17T08:10:12.176Z,1.05
2022-10-17T08:12:39.487Z,1.58
2022-10-17T08:15:06.798Z,1.23
2022-10-17T08:17:33.953Z,1.42
2022-10-17T08:20:01.193Z,1.52
2022-10-17T08:22:28.608Z,1.25
2022-10-17T08:24:56.034Z,1.25
2022-10-17T08:27:27.952Z,1.27
2022-10-17T08:29:55.556Z,1.55
2022-10-17T08:32:23.204Z,1.40
2022-10-17T08:34:50.573Z,1.83
2022-10-17T08:37:17.950Z,1.65
2022-10-17T08:39:45.256Z,1.83
2022-10-17T08:42:12.517Z,2.25
2022-10-17T08:44:40.105Z,2.00
2022-10-17T08:47:07.618Z,1.98
2022-10-17T08:49:34.891Z,2.05
2022-10-17T08:52:02.182Z,1.90
2022-10-17T08:54:29.333Z,2.67
2022-10-17T08:56:56.636Z,2.70
2022-10-17T08:59:23.793Z,2.17
2022-10-17T09:01:50.974Z,2.60
2022-10-17T09:04:18.196Z,2.08
2022-10-17T09:06:45.501Z,2.13
2022-10-17T09:09:12.670Z,2.53
2022-10-17T09:11:41.895Z,2.00
2022-10-17T09:14:09.177Z,2.17
2022-10-17T09:16:37.441Z,2.38
2022-10-17T09:19:04.696Z,2.47
2022-10-17T09:21:34.897Z,1.77
2022-10-17T09:24:09.486Z,2.15
2022-10-17T09:26:37.321Z,2.13
2022-10-17T09:29:04.550Z,2.83
2022-10-17T09:31:31.995Z,2.97
2022-10-17T09:33:59.282Z,2.35
2022-10-17T09:36:26.584Z,1.98
2022-10-17T09:38:53.874Z,2.20
2022-10-17T09:44:10.881Z,2.55
2022-10-17T09:46:38.169Z,2.85
2022-10-17T09:49:05.831Z,2.85
2022-10-17T09:51:33.101Z,2.60
2022-10-17T09:54:00.893Z,2.53
2022-10-17T09:56:28.215Z,3.88
2022-10-17T09:58:55.455Z,2.53
2022-10-17T10:01:24.163Z,2.38
2022-10-17T10:03:51.894Z,3.53
2022-10-17T10:06:19.229Z,4.93
2022-10-17T10:08:47.361Z,4.72
2022-10-17T10:11:14.870Z,3.72
2022-10-17T10:13:42.103Z,2.83
2022-10-17T10:16:09.297Z,2.97
2022-10-17T10:18:36.588Z,4.45
2022-10-17T10:21:03.869Z,3.63
2022-10-17T10:23:31.087Z,2.67
2022-10-17T10:25:58.254Z,3.20
2022-10-17T10:28:25.956Z,2.90
2022-10-17T10:30:53.390Z,4.78
2022-10-17T10:33:20.656Z,4.00
2022-10-17T10:35:47.916Z,4.00
2022-10-17T10:38:15.220Z,2.85
2022-10-17T10:40:42.434Z,2.78
2022-10-17T10:43:09.670Z,3.25
2022-10-17T10:45:47.584Z,2.63
2022-10-17T10:48:15.894Z,2.42
2022-10-17T10:50:45.320Z,3.17
2022-10-17T10:53:12.872Z,3.80
2022-10-17T10:55:40.373Z,2.88
2022-10-17T10:58:07.662Z,4.35
2022-10-17T11:00:35.002Z,3.13
2022-10-17T11:03:02.272Z,4.10
2022-10-17T11:05:29.517Z,2.70
2022-10-17T11:07:56.777Z,2.72
2022-10-17T11:10:24.113Z,3.25
2022-10-17T11:12:51.509Z,3.55
2022-10-17T11:15:18.713Z,2.65
2022-10-17T11:17:46.143Z,3.65
2022-10-17T11:20:15.240Z,2.25
2022-10-17T11:22:42.509Z,2.90
2022-10-17T11:25:09.751Z,4.50
2022-10-17T11:27:37.006Z,2.33
2022-10-17T11:30:04.444Z,3.38
2022-10-17T11:32:32.744Z,2.53
2022-10-17T11:35:00.273Z,3.17
2022-10-17T11:37:27.569Z,3.42
2022-10-17T11:39:54.900Z,2.53
2022-10-17T11:42:22.448Z,4.47
2022-10-17T11:44:49.740Z,3.28
2022-10-17T11:47:16.879Z,2.17
2022-10-17T11:49:45.996Z,4.50
2022-10-17T11:52:22.785Z,2.70
2022-10-17T11:54:59.161Z,2.30
2022-10-17T11:57:26.310Z,3.53
2022-10-17T11:59:54.430Z,2.92
2022-10-17T12:02:21.828Z,2.42
2022-10-17T12:04:49.793Z,3.05
2022-10-17T12:07:17.325Z,2.83
2022-10-17T12:09:46.164Z,2.45
2022-10-17T12:12:13.301Z,2.90
2022-10-17T12:14:40.692Z,2.72
2022-10-17T12:17:07.931Z,2.85
2022-10-17T12:19:35.160Z,2.47
2022-10-17T12:22:02.333Z,2.95
2022-10-17T12:24:29.606Z,2.22
2022-10-17T12:26:57.216Z,2.90
2022-10-17T12:29:24.519Z,3.30
2022-10-17T12:31:51.986Z,3.70
2022-10-17T12:34:19.233Z,2.53
2022-10-17T12:36:46.848Z,4.20
2022-10-17T12:39:15.277Z,2.63
2022-10-17T12:41:44.413Z,3.15
2022-10-17T12:44:11.775Z,3.05
2022-10-17T12:46:39.055Z,3.17
2022-10-17T12:49:08.723Z,2.58
2022-10-17T12:51:37.613Z,2.35
2022-10-17T12:54:06.580Z,2.80
2022-10-17T12:56:33.863Z,3.25
2022-10-17T12:59:01.125Z,2.70
2022-10-17T13:01:28.524Z,2.78
2022-10-17T13:03:55.796Z,2.97
2022-10-17T13:06:23.063Z,2.42
2022-10-17T13:08:54.864Z,2.40
2022-10-17T13:11:23.492Z,2.65
2022-10-17T13:13:52.210Z,3.55
2022-10-17T13:16:19.390Z,2.13
2022-10-17T13:18:46.598Z,2.20
2022-10-17T13:21:13.934Z,2.75
2022-10-17T13:23:41.116Z,2.90
2022-10-17T13:26:08.749Z,1.83
2022-10-17T13:28:39.404Z,3.53
2022-10-17T13:31:07.004Z,2.40
2022-10-17T13:33:34.276Z,2.28
2022-10-17T13:36:01.899Z,2.22
2022-10-17T13:38:29.575Z,3.10
2022-10-17T13:41:05.847Z,2.40
2022-10-17T13:43:44.332Z,2.58
2022-10-17T13:46:32.640Z,1.75
2022-10-17T13:48:59.116Z,2.72
2022-10-17T13:51:26.316Z,2.47
2022-10-17T13:53:53.595Z,2.65
2022-10-17T13:56:28.266Z,2.53
2022-10-17T13:58:57.389Z,2.85
2022-10-17T14:01:24.652Z,3.45
2022-10-17T14:04:07.100Z,2.03
2022-10-17T14:06:34.706Z,2.55
2022-10-17T14:09:01.970Z,2.33
2022-10-17T14:11:29.487Z,2.70
2022-10-17T14:13:56.706Z,2.30
2022-10-17T14:16:24.059Z,2.55
2022-10-17T14:18:52.139Z,2.15
2022-10-17T14:21:37.266Z,1.85
2022-10-17T14:24:06.749Z,2.38
2022-10-17T14:26:37.321Z,2.05
2022-10-17T14:29:04.836Z,1.88
2022-10-17T14:31:32.194Z,3.38
2022-10-17T14:34:00.950Z,2.97
2022-10-17T14:36:28.108Z,2.63
2022-10-17T14:38:55.362Z,2.10
2022-10-17T14:41:43.040Z,3.03
2022-10-17T14:44:09.850Z,2.63
2022-10-17T14:46:37.098Z,2.35
2022-10-17T14:49:04.373Z,2.38
2022-10-17T14:51:40.215Z,2.33
2022-10-17T14:54:18.591Z,2.95
2022-10-17T14:56:45.877Z,2.28
2022-10-17T14:59:30.132Z,2.75
2022-10-17T15:02:04.585Z,2.30
2022-10-17T15:04:34.335Z,1.85
2022-10-17T15:07:01.561Z,2.20
2022-10-17T15:09:29.072Z,2.17
2022-10-17T15:11:56.293Z,2.08
2022-10-17T15:14:23.628Z,2.63
2022-10-17T15:16:51.203Z,1.95
2022-10-17T15:19:18.399Z,2.05
2022-10-17T15:21:47.223Z,2.30
2022-10-17T15:24:15.981Z,2.30
2022-10-17T15:26:43.284Z,2.03
2022-10-17T15:29:10.583Z,2.67
2022-10-17T15:31:37.864Z,2.65
2022-10-17T15:34:05.087Z,2.47
2022-10-17T15:36:32.313Z,2.80
2022-10-17T15:38:59.938Z,2.25
2022-10-17T15:41:27.236Z,1.73
2022-10-17T15:43:54.572Z,2.03
2022-10-17T15:46:22.773Z,1.88
2022-10-17T15:48:50.047Z,1.60
2022-10-17T15:51:17.349Z,2.10
2022-10-17T15:53:44.607Z,1.60
2022-10-17T15:56:11.974Z,1.55
2022-10-17T15:58:40.243Z,1.70
2022-10-17T16:01:07.844Z,1.63
2022-10-17T16:03:35.139Z,1.20
2022-10-17T16:06:02.383Z,1.60
2022-10-17T16:08:29.774Z,1.73
2022-10-17T16:10:56.950Z,1.73
2022-10-17T16:13:24.357Z,1.60
2022-10-17T16:15:51.661Z,2.78
2022-10-17T16:18:20.131Z,1.63
2022-10-17T16:20:47.494Z,2.67
2022-10-17T16:23:14.878Z,1.80
2022-10-17T16:25:42.357Z,5.28
2022-10-17T16:28:09.625Z,2.80
2022-10-17T16:30:38.048Z,2.00
2022-10-17T16:33:05.220Z,1.70
2022-10-17T16:35:36.536Z,2.00
2022-10-17T16:38:05.063Z,2.60
2022-10-17T16:40:32.267Z,2.08
2022-10-17T16:42:59.463Z,1.80
2022-10-17T16:45:26.706Z,2.45
2022-10-17T16:47:54.022Z,2.10
2022-10-17T16:50:21.213Z,2.17
2022-10-17T16:52:48.504Z,1.90
2022-10-17T16:55:19.120Z,2.33
2022-10-17T16:57:48.987Z,1.80
2022-10-17T17:00:16.785Z,2.15
2022-10-17T17:02:44.007Z,2.15
2022-10-17T17:05:11.362Z,2.15
2022-10-17T17:07:38.605Z,2.05
2022-10-17T17:10:05.875Z,2.25
2022-10-17T17:12:33.143Z,2.25
2022-10-17T17:15:00.519Z,2.80
2022-10-17T17:17:37.338Z,2.45
2022-10-17T17:20:15.233Z,3.72
2022-10-17T17:22:42.460Z,2.58
2022-10-17T17:25:09.753Z,4.03
2022-10-17T17:27:37.160Z,2.40
2022-10-17T17:30:04.447Z,2.70
2022-10-17T17:32:31.767Z,2.63
2022-10-17T17:34:59.025Z,2.75
2022-10-17T17:37:26.264Z,3.60
2022-10-17T17:39:53.459Z,4.00
2022-10-17T17:42:20.894Z,3.90
2022-10-17T17:44:48.541Z,4.10
2022-10-17T17:47:15.793Z,6.03
2022-10-17T17:49:43.033Z,4.15
2022-10-17T17:52:10.285Z,3.72
2022-10-17T17:54:40.789Z,3.20
2022-10-17T17:57:08.616Z,2.90
2022-10-17T17:59:36.243Z,5.07
2022-10-17T18:02:06.429Z,3.40
2022-10-17T18:04:33.876Z,3.95
2022-10-17T18:07:01.139Z,3.40
2022-10-17T18:09:28.441Z,3.60
2022-10-17T18:11:56.030Z,3.67
2022-10-17T18:14:26.438Z,4.68
2022-10-17T18:16:53.747Z,5.05
2022-10-17T18:19:22.338Z,3.28
2022-10-17T18:21:49.611Z,3.10
2022-10-17T18:24:16.844Z,3.33
2022-10-17T18:26:44.056Z,3.90
2022-10-17T18:29:12.764Z,3.92
2022-10-17T18:31:40.445Z,3.60
2022-10-17T18:34:07.749Z,2.38
2022-10-17T18:36:35.140Z,3.42
2022-10-17T18:39:02.349Z,3.10
2022-10-17T18:41:29.606Z,3.35
2022-10-17T18:43:56.797Z,3.60
2022-10-17T18:46:24.078Z,3.00
2022-10-17T18:48:51.266Z,3.25
2022-10-17T18:51:18.733Z,5.20
2022-10-17T18:53:45.917Z,2.90
2022-10-17T18:56:13.175Z,2.88
2022-10-17T18:58:40.344Z,3.05
2022-10-17T19:01:07.704Z,3.22
2022-10-17T19:03:34.967Z,3.03
2022-10-17T19:06:02.338Z,3.33
2022-10-17T19:08:29.499Z,3.67
2022-10-17T19:10:56.798Z,2.80
2022-10-17T19:13:24.275Z,3.45
2022-10-17T19:15:51.623Z,3.13
2022-10-17T19:18:18.949Z,3.80
2022-10-17T19:20:46.153Z,3.75
2022-10-17T19:23:13.379Z,6.43
2022-10-17T19:25:40.502Z,5.35
2022-10-17T19:28:07.971Z,5.40
2022-10-17T19:30:35.142Z,5.28
2022-10-17T19:33:02.411Z,7.18
2022-10-17T19:35:29.975Z,6.50
2022-10-17T19:37:57.222Z,5.45
2022-10-17T19:40:25.454Z,9.07
2022-10-17T19:42:53.177Z,9.25
2022-10-17T19:45:20.449Z,8.55
2022-10-17T19:47:47.869Z,7.20
2022-10-17T19:50:15.076Z,9.93
2022-10-17T19:52:42.363Z,8.13
2022-10-17T19:55:09.668Z,10.38
2022-10-17T19:57:36.975Z,10.30
2022-10-17T20:00:04.231Z,13.68
2022-10-17T20:02:38.562Z,12.18
2022-10-17T20:05:21.660Z,12.93
2022-10-17T20:10:18.980Z,7.63
2022-10-17T20:12:46.424Z,7.55
2022-10-17T20:15:13.662Z,7.40
2022-10-17T20:17:40.974Z,6.43
2022-10-17T20:20:08.869Z,5.53
2022-10-17T20:22:36.644Z,4.53
2022-10-17T20:25:03.870Z,4.15
2022-10-17T20:27:31.343Z,3.67
2022-10-17T20:30:01.969Z,3.42
2022-10-17T20:32:29.527Z,3.65
2022-10-17T20:34:57.178Z,3.25
2022-10-17T20:37:24.623Z,3.00
2022-10-17T20:40:04.954Z,4.10
2022-10-17T20:42:39.368Z,3.08
2022-10-17T20:45:06.563Z,2.80
2022-10-17T20:47:46.091Z,3.97
2022-10-17T20:50:14.576Z,2.85
2022-10-17T20:52:41.856Z,3.45
2022-10-17T20:55:09.161Z,2.55
2022-10-17T20:57:36.477Z,2.85
2022-10-17T21:00:03.801Z,2.10
2022-10-17T21:02:31.084Z,2.75
2022-10-17T21:04:58.508Z,2.50
2022-10-17T21:07:25.686Z,4.18
2022-10-17T21:09:52.926Z,3.70
2022-10-17T21:12:30.894Z,2.60
2022-10-17T21:14:58.961Z,2.90
2022-10-17T21:17:26.449Z,2.75
2022-10-17T21:19:54.020Z,2.72
2022-10-17T21:22:21.281Z,3.92
2022-10-17T21:24:48.938Z,2.67
2022-10-17T21:27:16.309Z,3.30
2022-10-17T21:29:43.510Z,2.58
2022-10-17T21:32:19.574Z,2.63
2022-10-17T21:34:58.522Z,2.67
2022-10-17T21:37:26.009Z,3.03
2022-10-17T21:39:53.335Z,2.95
2022-10-17T21:42:20.604Z,4.53
2022-10-17T21:44:47.962Z,3.38
2022-10-17T21:47:15.201Z,2.88
2022-10-17T21:49:42.755Z,2.40
2022-10-17T21:52:10.013Z,2.70
2022-10-17T21:54:37.562Z,2.78
2022-10-17T21:57:04.820Z,2.92
2022-10-17T21:59:35.169Z,2.65
2022-10-17T22:02:02.587Z,2.53
2022-10-17T22:04:29.814Z,3.53
2022-10-17T22:06:57.289Z,2.28
2022-10-17T22:09:24.563Z,3.10
2022-10-17T22:11:51.905Z,2.67
2022-10-17T22:14:19.239Z,2.78
2022-10-17T22:16:46.783Z,5.00
2022-10-17T22:19:14.029Z,3.38
2022-10-17T22:21:41.588Z,2.72
2022-10-17T22:24:09.096Z,3.03
2022-10-17T22:26:36.337Z,2.83
2022-10-17T22:29:04.393Z,2.83
2022-10-17T22:31:31.939Z,3.08
2022-10-17T22:33:59.136Z,2.53
2022-10-17T22:36:26.577Z,5.10
2022-10-17T22:38:53.833Z,2.35
2022-10-17T22:41:21.163Z,2.20
2022-10-17T22:43:48.551Z,2.42
2022-10-17T22:46:18.923Z,3.10
2022-10-17T22:48:46.258Z,3.28
2022-10-17T22:51:13.687Z,2.95
2022-10-17T22:53:41.178Z,2.50
2022-10-17T22:56:08.492Z,2.70
2022-10-17T22:58:35.981Z,2.38
2022-10-17T23:01:03.309Z,3.05
2022-10-17T23:03:30.608Z,2.17
2022-10-17T23:05:57.897Z,2.70
2022-10-17T23:08:25.484Z,2.40
2022-10-17T23:10:52.644Z,2.15
2022-10-17T23:13:21.270Z,3.03
2022-10-17T23:15:48.607Z,2.38
2022-10-17T23:18:16.001Z,1.83
2022-10-17T23:20:43.285Z,1.73
2022-10-17T23:23:10.504Z,2.08
2022-10-17T23:25:37.881Z,4.00
2022-10-17T23:28:05.175Z,2.67
2022-10-17T23:30:32.628Z,2.65
2022-10-17T23:33:00.859Z,1.92
2022-10-17T23:35:28.240Z,2.70
2022-10-17T23:37:55.710Z,2.00
2022-10-17T23:40:23.011Z,2.20
2022-10-17T23:42:50.226Z,2.65
2022-10-17T23:45:17.734Z,1.90
2022-10-17T23:47:45.136Z,1.95
2022-10-17T23:50:12.483Z,2.53
2022-10-17T23:52:39.740Z,2.10
2022-10-17T23:55:07.032Z,2.30
2022-10-17T23:57:34.493Z,2.58
